Latest Weather Observations for Ernabella/Pukatja

IDD60801

Issued at 8:31 pm CST Monday 27 February 2017 (issued every 30 minutes, with the page automatically refreshed every 10 minutes)

About weather observations | Map of weather stations | Latest weather observations for NT | Other Formats
Station Details ID: 016097 Name: PUKATJA Lat: -26.26 Lon: 132.18 Height: 703.2 m
Data from the previous 72 hours. | See also: Recent months at Ernabella/Pukatja
Date/Time
CST
Temp
°C
App
Temp
°C
Dew
Point
°C
Rel
Hum
%
Delta-T
°C
Wind Press
QNH
hPa
Press
MSL
hPa
Rain since
9am
mm
Dir  Spd
km/h
Gust
km/h
Spd
kts
Gust
kts
27/08:30pm 25.5 21.8 -3.0 15 12.9 ENE 7 9 4 5 1016.6 1011.5 0.0
27/08:00pm 26.1 22.1 -2.5 15 13.1 ESE 9 15 5 8 1016.3 1011.2 0.0
27/07:30pm 27.8 23.7 -3.1 13 14.2 E 9 9 5 5 1016.0 1010.8 0.0
27/07:00pm 30.6 26.0 -4.4 10 16.1 E 11 19 6 10 1015.7 1010.5 0.0
27/06:30pm 32.4 28.1 -4.5 9 17.2 ESE 9 19 5 10 1015.4 1010.2 0.0
27/06:00pm 33.2 27.5 -7.2 7 18.1 SE 15 20 8 11 1015.2 1010.1 0.0
27/05:30pm 33.9 28.9 -8.7 6 18.7 SSE 11 24 6 13 1015.1 1010.0 0.0
27/05:00pm 33.9 28.3 -6.7 7 18.4 E 15 30 8 16 1015.0 1009.9 0.0
27/04:30pm 34.2 28.2 -6.5 7 18.6 S 17 30 9 16 1015.1 1010.0 0.0
27/04:00pm 33.8 28.2 -6.8 7 18.4 E 15 24 8 13 1015.0 1009.9 0.0
27/03:30pm 33.9 27.5 -6.7 7 18.4 S 19 33 10 18 1015.5 1010.3 0.0
27/03:00pm 34.1 28.1 -6.5 7 18.5 SE 17 26 9 14 1015.7 1010.5 0.0
27/02:30pm 34.6 30.2 -6.2 7 18.8 E 9 20 5 11 1016.0 1010.8 0.0
27/02:00pm 34.4 29.7 -4.6 8 18.4 S 11 24 6 13 1016.3 1011.2 0.0
27/01:30pm 33.5 28.6 -3.7 9 17.7 ESE 13 20 7 11 1017.0 1011.8 0.0
27/01:00pm 33.5 28.7 -2.3 10 17.4 ESE 13 26 7 14 1017.3 1012.1 0.0
27/12:30pm 31.8 27.3 -3.5 10 16.6 SSE 11 19 6 10 1017.7 1012.6 0.0
27/12:00pm 31.8 27.4 -2.3 11 16.4 SE 11 19 6 10 1018.2 1013.1 0.0
27/11:30am 30.8 27.0 -0.8 13 15.5 SE 9 17 5 9 1018.6 1013.4 0.0
27/11:00am 30.5 25.9 -1.0 13 15.3 ENE 13 22 7 12 1018.9 1013.8 0.0
27/10:30am 29.5 25.1 0.2 15 14.4 NE 13 22 7 12 1019.1 1014.0 0.0
27/10:00am 28.6 23.6 1.2 17 13.7 ENE 17 20 9 11 1019.4 1014.3 0.0
27/09:30am 27.7 22.6 0.5 17 13.3 ENE 17 24 9 13 1019.5 1014.4 0.0
27/09:00am 27.1 23.1 0.8 18 12.9 E 11 15 6 8 1019.3 1014.2 0.0
27/08:30am 25.7 22.1 0.4 19 12.2 E 9 13 5 7 1019.2 1014.1 0.0
27/08:00am 24.2 20.5 -0.2 20 11.5 E 9 11 5 6 1018.9 1013.8 0.0
27/07:30am 21.4 18.4 2.2 28 9.3 E 7 9 4 5 1018.6 1013.4 0.0
27/07:00am 18.4 15.2 1.0 31 8.0 E 7 9 4 5 1018.3 1013.2 0.0
27/06:30am 18.3 14.6 0.0 29 8.3 E 9 11 5 6 1018.2 1013.1 0.0
27/06:00am 19.1 15.7 -0.3 27 8.8 E 7 9 4 5 1018.1 1013.0 0.0
27/05:30am 18.8 14.7 -0.1 28 8.6 ESE 11 13 6 7 1017.9 1012.8 0.0
27/05:00am 19.6 16.0 0.6 28 8.8 ESE 9 11 5 6 1017.7 1012.6 0.0
27/04:30am 18.9 15.2 0.0 28 8.6 E 9 9 5 5 1017.6 1012.5 0.0
27/04:00am 19.2 16.0 -0.2 27 8.8 E 6 9 3 5 1017.6 1012.5 0.0
27/03:30am 19.1 15.4 0.2 28 8.6 E 9 13 5 7 1017.6 1012.5 0.0
27/03:00am 19.2 15.1 -0.2 27 8.8 ESE 11 15 6 8 1017.4 1012.2 0.0
27/02:30am 20.7 17.6 0.0 25 9.5 E 6 7 3 4 1017.4 1012.2 0.0
27/02:00am 21.7 18.3 -0.9 22 10.3 ENE 7 9 4 5 1017.4 1012.2 0.0
27/01:30am 21.9 17.3 -0.8 22 10.4 E 13 15 7 8 1017.4 1012.2 0.0
27/01:00am 21.8 17.6 -0.8 22 10.4 E 11 15 6 8 1017.6 1012.5 0.0
27/12:30am 21.6 17.5 -0.4 23 10.1 NE 11 15 6 8 1017.6 1012.5 0.0
27/12:00am 22.0 18.2 -0.7 22 10.4 ENE 9 11 5 6 1017.7 1012.6 0.0
 
Date/Time
CST
Temp
°C
App
Temp
°C
Dew
Point
°C
Rel
Hum
%
Delta-T
°C
Wind Press
QNH
hPa
Press
MSL
hPa
Rain since
9am
mm
Dir  Spd
km/h
Gust
km/h
Spd
kts
Gust
kts
26/11:30pm 23.4 20.0 -0.8 20 11.2 NE 7 11 4 6 1017.9 1012.8 0.0
26/11:00pm 26.1 22.2 -1.7 16 12.9 E 9 20 5 11 1017.8 1012.7 0.0
26/10:30pm 27.7 21.5 -3.2 13 14.2 ESE 20 26 11 14 1017.7 1012.6 0.0
26/10:00pm 28.1 21.8 -3.9 12 14.6 ESE 20 28 11 15 1017.6 1012.5 0.0
26/09:30pm 27.9 21.8 -4.1 12 14.5 ESE 19 26 10 14 1017.5 1012.4 0.0
26/09:00pm 28.3 22.1 -4.9 11 14.9 ESE 19 26 10 14 1017.3 1012.1 0.0
26/08:30pm 28.3 22.5 -4.9 11 14.9 ESE 17 22 9 12 1017.0 1011.8 0.0
26/08:00pm 29.0 23.5 -5.7 10 15.4 SE 15 22 8 12 1016.6 1011.5 0.0
26/07:30pm 29.0 23.5 -5.7 10 15.4 SE 15 20 8 11 1016.3 1011.2 0.0
26/07:00pm 30.1 24.9 -6.2 9 16.1 ESE 13 17 7 9 1016.0 1010.8 0.0
26/06:30pm 31.7 26.6 -5.0 9 16.8 SE 13 24 7 13 1015.7 1010.5 0.0
26/06:00pm 32.6 26.7 -5.9 8 17.5 SE 17 26 9 14 1015.5 1010.3 0.0
26/05:30pm 33.1 27.2 -5.5 8 17.8 E 17 30 9 16 1015.4 1010.2 0.0
26/05:00pm 34.0 28.9 -4.9 8 18.2 E 13 19 7 10 1015.1 1010.0 0.0
26/04:30pm 33.9 28.8 -4.9 8 18.1 SE 13 28 7 15 1015.0 1009.9 0.0
26/04:00pm 34.4 28.6 -4.6 8 18.4 SE 17 24 9 13 1015.1 1010.0 0.0
26/03:30pm 33.9 30.0 -4.9 8 18.1 S 7 15 4 8 1015.2 1010.1 0.0
26/03:00pm 34.9 30.3 -4.2 8 18.6 E 11 20 6 11 1015.5 1010.3 0.0
26/02:30pm 33.7 29.0 -5.1 8 18.0 S 11 24 6 13 1015.9 1010.7 0.0
26/02:00pm 33.7 28.8 -3.5 9 17.8 S 13 24 7 13 1016.1 1011.0 0.0
26/01:30pm 32.3 26.7 -3.2 10 16.9 ESE 17 28 9 15 1016.4 1011.3 0.0
26/01:00pm 31.8 26.7 -2.3 11 16.4 SE 15 28 8 15 1017.0 1011.8 0.0
26/12:30pm 31.8 27.9 1.0 14 15.6 E 11 20 6 11 1017.3 1012.1 0.0
26/12:00pm 31.5 28.2 4.3 18 14.6 ESE 11 19 6 10 1017.7 1012.6 0.0
26/11:30am 30.3 26.9 4.1 19 13.9 ESE 11 20 6 11 1018.2 1013.1 0.0
26/11:00am 29.0 24.8 3.8 20 13.2 E 15 24 8 13 1018.8 1013.7 0.0
26/10:30am 28.4 23.6 4.6 22 12.6 ENE 19 28 10 15 1019.2 1014.1 0.0
26/10:00am 27.6 23.2 4.6 23 12.1 ENE 17 24 9 13 1019.4 1014.3 0.0
26/09:30am 27.0 22.7 5.3 25 11.5 ENE 17 26 9 14 1019.4 1014.3 0.0
26/09:00am 25.3 21.2 4.4 26 10.8 NE 15 20 8 11 1019.4 1014.3 0.0
26/08:30am 24.4 21.0 4.2 27 10.3 ENE 11 17 6 9 1019.3 1014.2 0.0
26/08:00am 22.8 20.1 2.8 27 9.9 ENE 6 9 3 5 1019.3 1014.2 0.0
26/07:30am 19.1 17.0 4.1 37 7.4 NE 4 6 2 3 1019.1 1014.0 0.0
26/07:00am 17.3 14.5 2.9 38 6.9 NNE 7 9 4 5 1019.0 1013.9 0.0
26/06:30am 16.4 13.1 2.4 39 6.5 NE 9 11 5 6 1018.9 1013.8 0.0
26/06:00am 16.8 13.8 2.0 37 6.9 NE 7 11 4 6 1018.8 1013.7 0.0
26/05:30am 17.2 14.2 2.0 36 7.1 ENE 7 11 4 6 1018.6 1013.4 0.0
26/05:00am 18.1 15.1 2.0 34 7.6 NNE 7 11 4 6 1018.5 1013.3 0.0
26/04:30am 18.8 15.8 1.8 32 8.0 NE 7 11 4 6 1018.2 1013.1 0.0
26/04:00am 22.7 17.7 1.1 24 10.3 ESE 17 24 9 13 1018.2 1013.1 0.0
26/03:30am 23.2 17.6 1.5 24 10.5 SE 20 30 11 16 1018.1 1013.0 0.0
26/03:00am 23.5 17.9 1.2 23 10.8 ESE 20 28 11 15 1018.3 1013.2 0.0
26/02:30am 23.5 17.9 1.2 23 10.7 ESE 20 30 11 16 1018.6 1013.4 0.0
26/02:00am 23.2 18.1 0.9 23 10.7 ESE 17 24 9 13 1018.8 1013.7 0.0
26/01:30am 23.8 17.8 0.8 22 11.0 ESE 22 28 12 15 1019.0 1013.9 0.0
26/01:00am 24.3 17.9 1.2 22 11.2 SE 24 33 13 18 1019.0 1013.9 0.0
26/12:30am 24.5 18.1 0.8 21 11.4 SE 24 33 13 18 1019.2 1014.1 0.0
26/12:00am 24.8 18.9 1.7 22 11.3 SE 22 32 12 17 1019.2 1014.1 0.0
 
Date/Time
CST
Temp
°C
App
Temp
°C
Dew
Point
°C
Rel
Hum
%
Delta-T
°C
Wind Press
QNH
hPa
Press
MSL
hPa
Rain since
9am
mm
Dir  Spd
km/h
Gust
km/h
Spd
kts
Gust
kts
25/11:30pm 25.0 19.1 1.8 22 11.4 SE 22 30 12 16 1019.3 1014.2 0.0
25/11:00pm 25.2 19.7 2.0 22 11.5 SE 20 33 11 18 1019.4 1014.3 0.0
25/10:30pm 25.7 20.9 2.4 22 11.6 SE 17 30 9 16 1019.5 1014.4 0.0
25/10:00pm 26.3 20.9 2.3 21 12.0 SE 20 28 11 15 1019.4 1014.3 0.0
25/09:30pm 26.8 22.1 3.3 22 12.0 SE 17 24 9 13 1019.3 1014.2 0.0
25/09:00pm 27.5 23.8 4.5 23 12.1 SE 13 20 7 11 1019.0 1013.9 0.0
25/08:30pm 27.5 23.8 4.5 23 12.1 SSE 13 20 7 11 1018.9 1013.8 0.0
25/08:00pm 28.1 24.0 4.4 22 12.5 ESE 15 20 8 11 1018.6 1013.4 0.0
25/07:30pm 28.7 24.6 4.2 21 12.9 ESE 15 20 8 11 1018.2 1013.1 0.0
25/07:00pm 29.3 26.2 5.4 22 12.9 ESE 11 17 6 9 1017.9 1012.8 0.0
25/06:30pm 30.8 27.5 4.5 19 14.1 SE 11 15 6 8 1017.7 1012.6 0.0
25/06:00pm 31.4 26.5 4.2 18 14.5 ESE 19 28 10 15 1017.7 1012.6 0.0
25/05:30pm 31.8 27.4 4.6 18 14.6 E 17 24 9 13 1017.7 1012.6 0.0
25/05:00pm 31.8 28.5 4.6 18 14.6 SSE 11 20 6 11 1017.9 1012.8 0.0
25/04:30pm 32.4 28.1 5.1 18 14.9 SE 17 28 9 15 1018.2 1013.1 0.0
25/04:00pm 31.9 28.1 3.8 17 15.0 SE 13 24 7 13 1018.5 1013.3 0.0
25/03:30pm 32.7 28.6 4.5 17 15.2 SE 15 24 8 13 1018.7 1013.5 0.0
25/03:00pm 31.9 28.2 4.6 18 14.7 ESE 13 32 7 17 1019.1 1014.0 0.0
25/02:30pm 31.5 27.0 4.3 18 14.5 SE 17 32 9 17 1019.7 1014.6 0.0
25/02:00pm 31.9 28.0 5.4 19 14.4 SSE 15 22 8 12 1020.1 1015.0 0.0
25/01:30pm 30.5 25.9 5.7 21 13.5 ESE 19 30 10 16 1020.6 1015.5 0.0
25/01:00pm 29.5 25.4 6.2 23 12.7 ESE 17 26 9 14 1020.9 1015.8 0.0
25/12:30pm 29.8 26.3 7.1 24 12.6 ESE 15 28 8 15 1021.3 1016.3 0.0
25/12:00pm 28.3 23.7 6.4 25 11.9 ESE 20 28 11 15 1021.8 1016.7 0.0
25/11:30am 27.9 23.3 6.6 26 11.6 ESE 20 30 11 16 1022.3 1017.2 0.0
25/11:00am 27.7 23.4 7.0 27 11.3 E 19 26 10 14 1022.5 1017.4 0.0
25/10:30am 25.9 21.2 6.0 28 10.6 ESE 20 32 11 17 1022.7 1017.7 0.0
25/10:00am 24.8 19.0 6.1 30 9.9 ESE 26 33 14 18 1022.7 1017.7 0.0
25/09:30am 24.0 18.1 5.8 31 9.5 ESE 26 35 14 19 1022.7 1017.7 0.0
25/09:00am 23.0 17.4 5.4 32 9.1 ESE 24 30 13 16 1022.8 1017.8 0.0
25/08:30am 22.5 16.9 5.4 33 8.8 ESE 24 35 13 19 1022.8 1017.8 0.0
25/08:00am 21.4 15.7 4.9 34 8.4 ESE 24 39 13 21 1022.8 1017.8 0.0
25/07:30am 20.6 14.8 4.6 35 8.0 ESE 24 37 13 20 1022.5 1017.4 0.0
25/07:00am 20.2 14.9 5.1 37 7.7 SE 22 30 12 16 1022.3 1017.2 0.0
25/06:30am 19.7 14.8 5.0 38 7.4 SE 20 33 11 18 1022.0 1016.9 0.0
25/06:00am 20.1 14.8 5.0 37 7.6 SE 22 32 12 17 1021.8 1016.7 0.0
25/05:30am 20.3 15.4 5.1 37 7.7 SE 20 32 11 17 1021.7 1016.6 0.0
25/05:00am 20.7 15.0 5.1 36 7.9 SE 24 33 13 18 1021.5 1016.4 0.0
25/04:30am 20.9 15.2 4.9 35 8.1 SE 24 33 13 18 1021.6 1016.5 0.0
25/04:00am 21.2 15.5 4.7 34 8.4 SE 24 32 13 17 1021.6 1016.5 0.0
25/03:30am 21.7 16.0 4.7 33 8.6 SE 24 39 13 21 1021.8 1016.7 0.0
25/03:00am 21.7 15.9 4.3 32 8.8 SE 24 32 13 17 1021.8 1016.7 0.0
25/02:30am 22.1 16.3 4.2 31 9.0 SE 24 32 13 17 1021.9 1016.8 0.0
25/02:00am 22.6 16.8 4.6 31 9.2 SE 24 32 13 17 1022.0 1016.9 0.0
25/01:30am 22.9 17.5 4.4 30 9.4 SE 22 32 12 17 1022.2 1017.1 0.0
25/01:00am 23.2 17.7 4.2 29 9.7 SE 22 32 12 17 1022.4 1017.3 0.0
25/12:30am 23.4 18.4 4.4 29 9.7 SE 20 30 11 16 1022.7 1017.7 0.0
25/12:00am 23.8 18.9 4.2 28 10.0 SE 19 32 10 17 1023.1 1018.0 0.0
 
Date/Time
CST
Temp
°C
App
Temp
°C
Dew
Point
°C
Rel
Hum
%
Delta-T
°C
Wind Press
QNH
hPa
Press
MSL
hPa
Rain since
9am
mm
Dir  Spd
km/h
Gust
km/h
Spd
kts
Gust
kts
24/11:30pm 24.0 19.5 4.4 28 10.0 SE 17 26 9 14 1023.1 1018.0 0.0
24/11:00pm 24.8 19.9 4.0 26 10.6 SE 19 28 10 15 1023.2 1018.1 0.0
24/10:30pm 24.9 20.4 4.1 26 10.6 SE 17 24 9 13 1023.2 1018.1 0.0
24/10:00pm 25.3 20.4 3.9 25 11.0 SE 19 26 10 14 1023.0 1017.9 0.0
24/09:30pm 25.9 21.4 4.4 25 11.1 SE 17 28 9 15 1022.7 1017.7 0.0
24/09:00pm 26.3 22.2 4.1 24 11.5 SSE 15 20 8 11 1022.4 1017.3 0.0
24/08:30pm 26.5 22.0 4.3 24 11.5 SSE 17 28 9 15 1022.1 1017.0 0.0
24/08:00pm 27.2 22.3 4.3 23 11.9 SE 19 26 10 14 1021.7 1016.6 0.0

Other Formats:

Comma delimited format used in spreadsheet applications
http://www.bom.gov.au/fwo/IDD60801/IDD60801.94474.axf

JavaScript Object Notation format (JSON) in row-major order
http://www.bom.gov.au/fwo/IDD60801/IDD60801.94474.json